createdAt,value
2022-07-25T00:02:14.651Z,73.36
2022-07-25T00:07:17.665Z,73.81
2022-07-25T00:12:20.398Z,73.91
2022-07-25T00:17:22.066Z,73.82
2022-07-25T00:22:23.863Z,73.68
2022-07-25T00:27:25.819Z,74.45
2022-07-25T00:32:27.669Z,74.59
2022-07-25T00:37:29.442Z,74.78
2022-07-25T00:42:32.329Z,75.07
2022-07-25T00:47:34.062Z,75.10
2022-07-25T00:52:36.503Z,74.76
2022-07-25T00:57:38.246Z,74.77
2022-07-25T01:02:41.319Z,75.24
2022-07-25T01:07:43.284Z,75.36
2022-07-25T01:12:49.073Z,74.91
2022-07-25T01:17:51.984Z,73.96
2022-07-25T01:22:54.664Z,73.22
2022-07-25T01:27:57.701Z,73.51
2022-07-25T01:32:59.425Z,73.43
2022-07-25T01:38:08.241Z,72.90
2022-07-25T01:43:10.666Z,72.37
2022-07-25T01:48:12.379Z,72.61
2022-07-25T01:53:14.039Z,73.01
2022-07-25T01:58:15.826Z,73.15
2022-07-25T02:03:30.598Z,72.73
2022-07-25T02:08:32.715Z,72.50
2022-07-25T02:13:34.661Z,72.79
2022-07-25T02:18:36.790Z,72.34
2022-07-25T02:23:40.663Z,72.55
2022-07-25T02:28:42.402Z,72.34
2022-07-25T02:33:44.959Z,72.71
2022-07-25T02:38:46.698Z,73.16
2022-07-25T02:43:48.516Z,73.35
2022-07-25T02:48:50.353Z,73.01
2022-07-25T02:53:57.722Z,72.92
2022-07-25T02:59:00.664Z,73.95
2022-07-25T03:04:02.627Z,74.28
2022-07-25T03:09:04.719Z,74.32
2022-07-25T03:14:08.420Z,74.48
2022-07-25T03:19:12.727Z,73.46
2022-07-25T03:24:14.863Z,73.91
2022-07-25T03:29:16.619Z,74.75
2022-07-25T03:34:18.940Z,73.63
2022-07-25T03:39:21.036Z,73.11
2022-07-25T03:44:24.304Z,73.76
2022-07-25T03:49:25.974Z,74.01
2022-07-25T03:54:27.824Z,74.81
2022-07-25T03:59:29.920Z,75.48
2022-07-25T04:04:31.851Z,76.08
2022-07-25T04:09:33.889Z,75.91
2022-07-25T04:14:36.725Z,74.89
2022-07-25T04:19:38.467Z,75.22
2022-07-25T04:24:40.338Z,75.57
2022-07-25T04:29:42.388Z,75.76
2022-07-25T04:34:44.740Z,76.72
2022-07-25T04:39:46.506Z,77.47
2022-07-25T04:44:48.210Z,77.48
2022-07-25T04:49:49.975Z,78.12
2022-07-25T04:54:51.838Z,78.29
2022-07-25T04:59:53.719Z,78.69
2022-07-25T05:04:55.449Z,78.90
2022-07-25T05:09:57.399Z,79.64
2022-07-25T05:14:59.088Z,80.18
2022-07-25T05:20:00.913Z,79.96
2022-07-25T05:25:05.967Z,80.29
2022-07-25T05:30:09.549Z,79.52
2022-07-25T05:35:11.408Z,79.31
2022-07-25T05:40:13.264Z,78.51
2022-07-25T05:45:15.438Z,77.61
2022-07-25T05:50:17.398Z,76.82
2022-07-25T05:55:19.338Z,76.19
2022-07-25T06:00:21.213Z,74.87
2022-07-25T06:05:23.137Z,74.26
2022-07-25T06:10:25.184Z,73.65
2022-07-25T06:15:27.662Z,73.70
2022-07-25T06:20:29.507Z,72.64
2022-07-25T06:25:31.246Z,71.82
2022-07-25T06:30:33.494Z,71.37
2022-07-25T06:35:35.699Z,70.92
2022-07-25T06:40:37.629Z,70.91
2022-07-25T06:45:39.298Z,70.58
2022-07-25T06:50:41.064Z,70.23
2022-07-25T06:55:42.967Z,69.63
2022-07-25T07:00:44.803Z,68.99
2022-07-25T07:05:46.664Z,68.98
2022-07-25T07:10:48.502Z,68.74
2022-07-25T07:15:51.063Z,68.61
2022-07-25T07:20:53.590Z,68.30
2022-07-25T07:25:55.331Z,67.09
2022-07-25T07:36:19.006Z,67.32
2022-07-25T07:41:21.578Z,66.33
2022-07-25T07:46:23.314Z,66.04
2022-07-25T07:51:25.099Z,65.61
2022-07-25T07:56:28.136Z,64.44
2022-07-25T08:01:30.359Z,64.03
2022-07-25T08:06:32.104Z,63.16
2022-07-25T08:11:33.862Z,62.58
2022-07-25T08:16:35.725Z,62.24
2022-07-25T08:21:37.573Z,61.65
2022-07-25T08:26:39.442Z,61.02
2022-07-25T08:31:41.246Z,60.51
2022-07-25T08:36:43.242Z,60.48
2022-07-25T08:41:45.799Z,59.52
2022-07-25T08:46:48.224Z,58.84
2022-07-25T08:51:51.061Z,58.31
2022-07-25T08:56:54.413Z,57.37
2022-07-25T09:01:56.970Z,57.71
2022-07-25T09:06:58.825Z,57.00
2022-07-25T09:12:01.484Z,55.51
2022-07-25T09:17:06.716Z,55.60
2022-07-25T09:22:24.687Z,56.22
2022-07-25T09:27:26.482Z,54.62
2022-07-25T09:32:29.197Z,54.14
2022-07-25T09:37:30.984Z,53.92
2022-07-25T09:42:32.839Z,53.49
2022-07-25T09:47:38.067Z,53.79
2022-07-25T09:52:40.349Z,52.56
2022-07-25T09:57:42.683Z,52.26
2022-07-25T10:02:53.066Z,51.42
2022-07-25T10:07:55.653Z,50.06
2022-07-25T10:13:11.326Z,50.04
2022-07-25T10:18:14.832Z,49.60
2022-07-25T10:23:25.846Z,48.63
2022-07-25T10:28:48.573Z,47.40
2022-07-25T10:33:53.294Z,48.26
2022-07-25T10:38:58.191Z,47.21
2022-07-25T10:44:02.019Z,47.82
2022-07-25T10:49:06.339Z,46.88
2022-07-25T10:54:17.933Z,46.04
2022-07-25T10:59:30.957Z,46.49
2022-07-25T11:04:37.696Z,46.46
2022-07-25T11:09:41.371Z,45.09
2022-07-25T11:14:43.484Z,44.45
2022-07-25T11:19:58.102Z,44.76
2022-07-25T11:25:01.012Z,42.15
2022-07-25T11:30:17.446Z,40.72
2022-07-25T11:35:25.990Z,41.34
2022-07-25T11:40:28.483Z,41.78
2022-07-25T11:45:33.610Z,41.07
2022-07-25T11:50:41.843Z,41.23
2022-07-25T11:55:43.995Z,41.31
2022-07-25T12:00:48.675Z,40.77
2022-07-25T12:05:50.611Z,40.36
2022-07-25T12:10:52.317Z,39.64
2022-07-25T12:15:56.292Z,39.96
2022-07-25T12:20:57.977Z,39.10
2022-07-25T12:26:00.069Z,37.71
2022-07-25T12:31:01.915Z,37.64
2022-07-25T12:36:08.422Z,37.83
2022-07-25T12:41:14.586Z,36.89
2022-07-25T12:46:19.524Z,37.55
2022-07-25T12:51:21.221Z,34.82
2022-07-25T12:56:23.067Z,35.59
2022-07-25T13:01:24.959Z,34.98
2022-07-25T13:06:26.925Z,34.58
2022-07-25T13:11:28.769Z,34.96
2022-07-25T13:16:30.762Z,35.73
2022-07-25T13:21:32.538Z,34.96
2022-07-25T13:26:34.911Z,33.82
2022-07-25T13:31:41.037Z,34.45
2022-07-25T13:36:43.118Z,34.50
2022-07-25T13:41:44.963Z,33.35
2022-07-25T13:46:50.006Z,33.95
2022-07-25T13:51:51.807Z,34.34
2022-07-25T13:56:53.663Z,34.62
2022-07-25T14:01:55.526Z,33.17
2022-07-25T14:06:57.407Z,32.97
2022-07-25T14:11:59.118Z,33.01
2022-07-25T14:17:00.949Z,32.85
2022-07-25T14:22:02.714Z,33.62
2022-07-25T14:27:04.820Z,35.66
2022-07-25T14:32:08.176Z,33.45
2022-07-25T14:37:10.231Z,35.00
2022-07-25T14:42:11.962Z,33.77
2022-07-25T14:47:13.798Z,33.85
2022-07-25T14:52:16.395Z,34.60
2022-07-25T14:57:18.647Z,33.48
2022-07-25T15:02:20.680Z,33.52
2022-07-25T15:07:22.392Z,34.28
2022-07-25T15:12:24.138Z,33.35
2022-07-25T15:17:25.946Z,34.28
2022-07-25T15:22:27.700Z,33.46
2022-07-25T15:27:29.614Z,32.82
2022-07-25T15:32:31.363Z,32.87
2022-07-25T15:37:33.028Z,34.30
2022-07-25T15:42:34.921Z,34.47
2022-07-25T15:47:38.423Z,34.56
2022-07-25T15:52:40.143Z,35.61
2022-07-25T15:57:41.959Z,36.48
2022-07-25T16:02:45.949Z,36.81
2022-07-25T16:07:48.284Z,34.84
2022-07-25T16:12:50.080Z,35.24
2022-07-25T16:17:53.495Z,36.12
2022-07-25T16:22:57.564Z,36.54
2022-07-25T16:27:59.814Z,36.05
2022-07-25T16:33:01.731Z,36.56
2022-07-25T16:38:03.552Z,38.15
2022-07-25T16:43:05.326Z,38.86
2022-07-25T16:48:07.362Z,38.17
2022-07-25T16:53:09.282Z,43.16
2022-07-25T16:58:11.158Z,49.81
2022-07-25T17:03:12.872Z,56.17
2022-07-25T17:08:14.555Z,61.71
2022-07-25T17:13:16.795Z,66.18
2022-07-25T17:18:18.527Z,69.63
2022-07-25T17:23:21.394Z,73.22
2022-07-25T17:28:23.251Z,74.20
2022-07-25T17:33:24.963Z,74.69
2022-07-25T17:38:30.324Z,74.53
2022-07-25T17:43:36.174Z,73.72
2022-07-25T17:48:37.931Z,73.96
2022-07-25T17:53:39.753Z,74.14
2022-07-25T17:58:41.511Z,73.18
2022-07-25T18:03:47.375Z,72.97
2022-07-25T18:08:49.046Z,70.51
2022-07-25T18:13:50.746Z,70.41
2022-07-25T18:18:52.514Z,71.14
2022-07-25T18:23:54.219Z,72.08
2022-07-25T18:28:55.962Z,72.57
2022-07-25T18:33:57.663Z,73.69
2022-07-25T18:38:59.509Z,74.15
2022-07-25T18:44:01.778Z,73.54
2022-07-25T18:49:03.573Z,74.32
2022-07-25T18:54:05.915Z,74.47
2022-07-25T18:59:08.194Z,75.61
2022-07-25T19:04:11.496Z,76.36
2022-07-25T19:09:13.297Z,76.18
2022-07-25T19:14:15.196Z,76.76
2022-07-25T19:19:17.204Z,76.33
2022-07-25T19:24:19.076Z,77.07
2022-07-25T19:29:20.950Z,78.28
2022-07-25T19:34:23.662Z,79.12
2022-07-25T19:39:25.517Z,77.83
2022-07-25T19:44:27.336Z,76.73
2022-07-25T19:49:29.142Z,76.84
2022-07-25T19:54:30.986Z,76.90
2022-07-25T19:59:34.703Z,76.92
2022-07-25T20:04:36.899Z,76.39
2022-07-25T20:09:39.729Z,76.47
2022-07-25T20:14:41.531Z,75.80
2022-07-25T20:19:43.678Z,76.00
2022-07-25T20:24:45.859Z,76.99
2022-07-25T20:29:47.800Z,78.38
2022-07-25T20:34:49.555Z,79.79
2022-07-25T20:39:51.694Z,81.08
2022-07-25T20:44:53.725Z,81.79
2022-07-25T20:49:55.472Z,82.68
2022-07-25T20:54:57.627Z,83.02
2022-07-25T21:00:00.413Z,82.67
2022-07-25T21:05:02.807Z,81.13
2022-07-25T21:10:05.053Z,80.25
2022-07-25T21:15:08.186Z,80.40
2022-07-25T21:20:12.825Z,80.23
2022-07-25T21:25:15.358Z,80.69
2022-07-25T21:30:17.371Z,80.87
2022-07-25T21:35:19.250Z,80.50
2022-07-25T21:40:20.978Z,79.87
2022-07-25T21:45:23.086Z,79.52
2022-07-25T21:50:42.235Z,80.13
2022-07-25T21:55:45.795Z,80.62
2022-07-25T22:00:47.709Z,81.39
2022-07-25T22:05:49.443Z,81.57
2022-07-25T22:10:51.448Z,81.30
2022-07-25T22:15:53.846Z,81.05
2022-07-25T22:20:55.749Z,80.48
2022-07-25T22:25:57.521Z,80.24
2022-07-25T22:30:59.333Z,79.55
2022-07-25T22:36:01.659Z,79.33
2022-07-25T22:41:03.373Z,78.67
2022-07-25T22:46:05.121Z,78.63
2022-07-25T22:51:06.996Z,78.32
2022-07-25T22:56:08.768Z,78.04
2022-07-25T23:01:10.941Z,77.87
2022-07-25T23:06:12.832Z,78.10
2022-07-25T23:11:14.537Z,78.31
2022-07-25T23:16:16.428Z,79.14
2022-07-25T23:21:18.166Z,79.67
2022-07-25T23:26:19.926Z,80.05
2022-07-25T23:31:21.746Z,79.77
2022-07-25T23:36:23.501Z,79.75
2022-07-25T23:41:25.173Z,80.18
2022-07-25T23:46:29.545Z,80.11
2022-07-25T23:51:33.525Z,80.45
2022-07-25T23:56:35.202Z,80.43
